createdAt,value
2022-12-23T00:02:29.139Z,99468.21
2022-12-23T00:05:01.285Z,99466.66
2022-12-23T00:07:33.174Z,99468.73
2022-12-23T00:10:06.388Z,99470.63
2022-12-23T00:12:56.168Z,99465.48
2022-12-23T00:15:28.691Z,99463.23
2022-12-23T00:18:00.809Z,99468.77
2022-12-23T00:20:36.633Z,99459.60
2022-12-23T00:23:11.385Z,99462.71
2022-12-23T00:25:51.102Z,99457.48
2022-12-23T00:28:30.132Z,99467.08
2022-12-23T00:31:05.017Z,99466.41
2022-12-23T00:33:45.710Z,99472.45
2022-12-23T00:36:27.674Z,99473.77
2022-12-23T00:39:25.357Z,99474.77
2022-12-23T00:42:22.767Z,99479.94
2022-12-23T00:45:15.276Z,99480.01
2022-12-23T00:48:06.653Z,99485.36
2022-12-23T00:50:48.447Z,99480.25
2022-12-23T00:53:23.448Z,99485.35
2022-12-23T00:55:55.701Z,99485.20
2022-12-23T00:58:32.495Z,99485.92
2022-12-23T01:01:23.201Z,99487.70
2022-12-23T01:04:18.120Z,99494.52
2022-12-23T01:07:17.008Z,99488.66
2022-12-23T01:09:51.311Z,99491.33
2022-12-23T01:12:29.690Z,99491.75
2022-12-23T01:15:03.526Z,99495.14
2022-12-23T01:17:35.473Z,99493.38
2022-12-23T01:20:11.851Z,99496.52
2022-12-23T01:22:43.911Z,99496.52
2022-12-23T01:25:16.284Z,99497.73
2022-12-23T01:27:48.107Z,99500.54
2022-12-23T01:30:20.129Z,99500.73
2022-12-23T01:32:52.120Z,99505.91
2022-12-23T01:35:24.210Z,99504.11
2022-12-23T01:37:56.030Z,99509.02
2022-12-23T01:40:27.992Z,99509.07
2022-12-23T01:43:01.879Z,99510.10
2022-12-23T01:45:34.639Z,99511.27
2022-12-23T01:48:15.526Z,99510.52
2022-12-23T01:50:50.068Z,99506.57
2022-12-23T01:53:23.851Z,99510.86
2022-12-23T01:55:59.677Z,99507.70
2022-12-23T01:58:34.475Z,99506.06
2022-12-23T02:01:24.729Z,99505.59
2022-12-23T02:04:00.168Z,99507.38
2022-12-23T02:06:52.378Z,99508.51
2022-12-23T02:09:26.753Z,99510.14
2022-12-23T02:12:25.218Z,99515.57
2022-12-23T02:15:35.284Z,99524.16
2022-12-23T02:18:17.980Z,99527.30
2022-12-23T02:21:06.275Z,99527.33
2022-12-23T02:24:05.125Z,99526.61
2022-12-23T02:26:59.917Z,99525.11
2022-12-23T02:30:05.656Z,99526.30
2022-12-23T02:33:10.565Z,99532.09
2022-12-23T02:35:54.626Z,99535.81
2022-12-23T02:38:38.150Z,99531.70
2022-12-23T02:41:22.331Z,99538.04
2022-12-23T02:44:00.860Z,99542.14
2022-12-23T02:46:59.775Z,99543.13
2022-12-23T02:49:36.503Z,99544.20
2022-12-23T02:52:13.300Z,99545.68
2022-12-23T03:03:12.051Z,99556.18
2022-12-23T03:06:19.345Z,99558.42
2022-12-23T03:09:17.100Z,99556.60
2022-12-23T03:12:37.799Z,99560.37
2022-12-23T03:16:23.181Z,99562.16
2022-12-23T03:19:30.392Z,99557.43
2022-12-23T03:22:30.755Z,99559.35
2022-12-23T03:25:28.386Z,99554.54
2022-12-23T03:28:07.290Z,99553.99
2022-12-23T03:32:07.478Z,99559.63
2022-12-23T03:53:03.333Z,99575.66
2022-12-23T03:56:21.785Z,99567.44
2022-12-23T03:58:57.030Z,99566.35
2022-12-23T04:01:34.474Z,99568.23
2022-12-23T04:04:10.723Z,99571.59
2022-12-23T04:06:47.011Z,99570.36
2022-12-23T04:09:22.604Z,99575.80
2022-12-23T04:11:55.087Z,99579.77
2022-12-23T04:14:28.197Z,99570.24
2022-12-23T04:17:00.604Z,99567.63
2022-12-23T04:19:33.698Z,99565.95
2022-12-23T04:22:08.953Z,99566.78
2022-12-23T04:24:42.911Z,99565.56
2022-12-23T04:27:21.470Z,99561.88
2022-12-23T04:29:56.306Z,99561.93
2022-12-23T04:32:46.347Z,99570.23
2022-12-23T04:35:26.570Z,99571.38
2022-12-23T04:38:05.756Z,99579.49
2022-12-23T04:41:06.555Z,99578.21
2022-12-23T04:44:01.520Z,99583.00
2022-12-23T04:46:37.286Z,99581.92
2022-12-23T04:49:12.493Z,99586.59
2022-12-23T04:51:51.777Z,99582.73
2022-12-23T04:54:28.461Z,99579.43
2022-12-23T04:57:06.493Z,99581.48
2022-12-23T04:59:45.011Z,99577.84
2022-12-23T05:02:17.119Z,99580.85
2022-12-23T05:04:49.289Z,99583.39
2022-12-23T05:07:40.027Z,99585.35
2022-12-23T05:10:25.035Z,99589.06
2022-12-23T05:12:56.940Z,99593.72
2022-12-23T05:15:29.265Z,99595.55
2022-12-23T05:18:03.380Z,99595.18
2022-12-23T05:20:53.078Z,99602.75
2022-12-23T05:23:30.836Z,99603.07
2022-12-23T05:26:03.118Z,99602.80
2022-12-23T05:28:39.475Z,99603.50
2022-12-23T05:31:17.466Z,99604.52
2022-12-23T05:34:02.337Z,99608.90
2022-12-23T05:36:38.420Z,99608.27
2022-12-23T05:39:17.922Z,99605.15
2022-12-23T05:41:50.198Z,99606.41
2022-12-23T05:44:26.819Z,99608.69
2022-12-23T05:47:01.748Z,99610.73
2022-12-23T05:49:36.911Z,99621.90
2022-12-23T05:52:16.571Z,99620.36
2022-12-23T05:54:51.831Z,99624.84
2022-12-23T05:57:34.159Z,99628.15
2022-12-23T06:00:21.797Z,99634.55
2022-12-23T06:02:54.689Z,99641.18
2022-12-23T06:05:27.315Z,99642.75
2022-12-23T06:08:06.361Z,99642.98
2022-12-23T06:10:44.953Z,99640.39
2022-12-23T06:13:17.562Z,99646.69
2022-12-23T06:15:51.254Z,99646.09
2022-12-23T06:18:23.936Z,99646.73
2022-12-23T06:20:56.033Z,99652.06
2022-12-23T06:23:27.857Z,99649.92
2022-12-23T06:26:03.236Z,99657.34
2022-12-23T06:28:35.481Z,99656.05
2022-12-23T06:31:26.080Z,99657.89
2022-12-23T06:33:59.573Z,99660.65
2022-12-23T06:36:34.394Z,99662.35
2022-12-23T06:39:06.577Z,99665.61
2022-12-23T06:41:38.588Z,99670.86
2022-12-23T06:44:13.079Z,99672.20
2022-12-23T06:46:45.171Z,99669.52
2022-12-23T06:49:28.012Z,99672.77
2022-12-23T06:52:03.169Z,99671.96
2022-12-23T06:54:46.230Z,99676.02
2022-12-23T06:57:22.595Z,99678.83
2022-12-23T07:00:03.246Z,99683.27
2022-12-23T07:02:46.524Z,99688.98
2022-12-23T07:05:36.925Z,99687.49
2022-12-23T07:08:15.141Z,99688.10
2022-12-23T07:10:53.153Z,99695.15
2022-12-23T07:13:25.239Z,99694.21
2022-12-23T07:15:57.349Z,99691.34
2022-12-23T07:18:29.256Z,99692.94
2022-12-23T07:21:02.689Z,99690.05
2022-12-23T07:23:34.879Z,99691.89
2022-12-23T07:26:06.990Z,99696.35
2022-12-23T07:28:39.925Z,99702.61
2022-12-23T07:31:12.139Z,99698.55
2022-12-23T07:33:47.966Z,99699.30
2022-12-23T07:36:25.642Z,99701.81
2022-12-23T07:39:07.119Z,99699.36
2022-12-23T07:41:39.438Z,99699.79
2022-12-23T07:44:12.337Z,99696.45
2022-12-23T07:46:44.524Z,99695.63
2022-12-23T07:49:16.623Z,99691.84
2022-12-23T07:51:49.796Z,99691.73
2022-12-23T07:54:21.882Z,99689.14
2022-12-23T07:56:58.229Z,99685.00
2022-12-23T07:59:30.620Z,99679.75
2022-12-23T08:02:03.994Z,99685.30
2022-12-23T08:04:42.646Z,99686.31
2022-12-23T08:07:18.053Z,99696.59
2022-12-23T08:09:49.952Z,99702.16
2022-12-23T08:12:21.854Z,99706.15
2022-12-23T08:14:53.756Z,99706.45
2022-12-23T08:17:28.941Z,99703.77
2022-12-23T08:20:00.749Z,99700.98
2022-12-23T08:22:33.793Z,99709.30
2022-12-23T08:25:06.790Z,99708.79
2022-12-23T08:27:38.756Z,99703.13
2022-12-23T08:30:14.119Z,99702.92
2022-12-23T08:32:46.086Z,99701.52
2022-12-23T08:35:27.272Z,99702.89
2022-12-23T08:37:59.480Z,99699.86
2022-12-23T08:40:31.331Z,99693.10
2022-12-23T08:43:03.439Z,99692.48
2022-12-23T08:45:39.629Z,99689.75
2022-12-23T08:48:15.017Z,99687.19
2022-12-23T08:50:47.829Z,99685.13
2022-12-23T08:53:20.229Z,99686.43
2022-12-23T08:55:52.650Z,99682.16
2022-12-23T08:58:24.966Z,99681.59
2022-12-23T09:00:56.935Z,99675.45
2022-12-23T09:03:29.071Z,99676.27
2022-12-23T09:06:02.138Z,99668.16
2022-12-23T09:08:34.193Z,99665.51
2022-12-23T09:11:06.479Z,99662.62
2022-12-23T09:13:38.512Z,99663.09
2022-12-23T09:16:11.793Z,99659.74
2022-12-23T09:18:44.134Z,99656.44
2022-12-23T09:21:22.920Z,99657.86
2022-12-23T09:23:55.051Z,99659.77
2022-12-23T09:26:28.214Z,99655.83
2022-12-23T09:29:00.263Z,99652.66
2022-12-23T09:31:36.653Z,99641.74
2022-12-23T09:34:11.160Z,99637.29
2022-12-23T09:36:43.297Z,99630.35
2022-12-23T09:39:15.488Z,99626.92
2022-12-23T09:42:01.525Z,99624.44
2022-12-23T09:44:47.506Z,99618.09
2022-12-23T09:47:23.488Z,99617.18
2022-12-23T09:49:58.199Z,99614.73
2022-12-23T09:52:35.438Z,99609.85
2022-12-23T09:55:12.264Z,99607.11
2022-12-23T09:57:49.676Z,99603.98
2022-12-23T10:00:24.586Z,99601.70
2022-12-23T10:03:17.517Z,99599.94
2022-12-23T10:05:58.327Z,99595.80
2022-12-23T10:08:33.414Z,99593.09
2022-12-23T10:11:11.098Z,99596.54
2022-12-23T10:13:46.875Z,99596.89
2022-12-23T10:16:21.303Z,99600.77
2022-12-23T10:18:56.957Z,99596.81
2022-12-23T10:21:33.781Z,99594.62
2022-12-23T10:24:12.360Z,99593.98
2022-12-23T10:26:50.134Z,99594.99
2022-12-23T10:29:25.148Z,99589.80
2022-12-23T10:32:02.485Z,99590.41
2022-12-23T10:34:43.256Z,99589.16
2022-12-23T10:37:21.765Z,99582.65
2022-12-23T10:40:02.325Z,99582.73
2022-12-23T10:42:37.963Z,99575.05
2022-12-23T10:45:24.702Z,99573.23
2022-12-23T10:48:11.913Z,99568.63
2022-12-23T10:50:53.371Z,99565.89
2022-12-23T10:53:35.143Z,99565.95
2022-12-23T10:56:09.425Z,99562.35
2022-12-23T10:58:45.039Z,99567.08
2022-12-23T11:01:26.010Z,99564.08
2022-12-23T11:04:06.089Z,99563.60
2022-12-23T11:06:41.446Z,99567.59
2022-12-23T11:09:18.669Z,99561.36
2022-12-23T11:11:58.749Z,99559.73
2022-12-23T11:14:40.040Z,99554.52
2022-12-23T11:17:25.796Z,99554.67
2022-12-23T11:20:09.077Z,99548.02
2022-12-23T11:22:50.399Z,99542.45
2022-12-23T11:25:34.145Z,99538.22
2022-12-23T11:28:09.413Z,99536.13
2022-12-23T11:30:55.453Z,99529.34
2022-12-23T11:33:30.251Z,99519.42
2022-12-23T11:36:08.080Z,99519.96
2022-12-23T11:38:48.284Z,99511.01
2022-12-23T11:41:23.722Z,99508.15
2022-12-23T11:43:59.053Z,99507.58
2022-12-23T11:46:34.275Z,99505.77
2022-12-23T11:49:26.163Z,99505.30
2022-12-23T11:52:11.968Z,99506.29
2022-12-23T11:54:44.048Z,99506.95
2022-12-23T11:57:20.620Z,99507.89
2022-12-23T11:59:59.047Z,99508.74
2022-12-23T12:02:35.875Z,99497.52
2022-12-23T12:05:18.599Z,99497.79
2022-12-23T12:07:51.423Z,99493.77
2022-12-23T12:10:26.439Z,99495.33
2022-12-23T12:13:00.890Z,99492.23
2022-12-23T12:15:43.312Z,99493.34
2022-12-23T12:18:17.217Z,99490.61
2022-12-23T12:20:52.536Z,99486.68
2022-12-23T12:23:28.216Z,99483.30
2022-12-23T12:26:04.498Z,99482.46
2022-12-23T12:28:40.344Z,99482.98
2022-12-23T12:31:18.713Z,99482.39
2022-12-23T12:33:54.480Z,99479.89
2022-12-23T12:36:34.888Z,99481.36
2022-12-23T12:39:07.317Z,99480.64
2022-12-23T12:41:41.047Z,99474.17
2022-12-23T12:44:29.480Z,99475.36
2022-12-23T12:47:27.899Z,99479.56
2022-12-23T12:50:02.192Z,99474.27
2022-12-23T12:52:37.563Z,99476.21
2022-12-23T12:55:17.278Z,99474.94
2022-12-23T12:57:49.478Z,99475.58
2022-12-23T13:00:23.434Z,99471.77
2022-12-23T13:03:20.321Z,99466.34
2022-12-23T13:06:10.587Z,99465.34
2022-12-23T13:08:55.218Z,99471.44
2022-12-23T13:11:32.332Z,99474.20
2022-12-23T13:14:06.976Z,99470.16
2022-12-23T13:16:48.367Z,99472.55
2022-12-23T13:19:25.503Z,99473.52
2022-12-23T13:22:02.540Z,99468.64
2022-12-23T13:24:49.610Z,99471.98
2022-12-23T13:27:23.455Z,99471.70
2022-12-23T13:30:13.601Z,99471.52
2022-12-23T13:32:56.672Z,99471.92
2022-12-23T13:35:40.602Z,99476.96
2022-12-23T13:38:22.503Z,99469.67
2022-12-23T13:41:02.154Z,99467.16
2022-12-23T13:43:43.234Z,99466.30
2022-12-23T13:46:23.648Z,99466.23
2022-12-23T13:49:01.574Z,99464.71
2022-12-23T13:51:36.601Z,99469.18
2022-12-23T13:54:17.496Z,99465.85
2022-12-23T13:56:54.271Z,99469.54
2022-12-23T13:59:26.148Z,99465.54
2022-12-23T14:01:57.971Z,99465.73
2022-12-23T14:04:37.894Z,99461.28
2022-12-23T14:07:21.286Z,99464.14
2022-12-23T14:09:54.680Z,99462.23
2022-12-23T14:12:30.475Z,99459.23
2022-12-23T14:15:20.833Z,99459.89
2022-12-23T14:18:04.444Z,99459.25
2022-12-23T14:20:46.045Z,99456.59
2022-12-23T14:23:31.880Z,99457.23
2022-12-23T14:26:14.765Z,99457.02
2022-12-23T14:28:59.222Z,99454.09
2022-12-23T14:31:33.208Z,99456.02
2022-12-23T14:34:07.451Z,99458.02
2022-12-23T14:36:39.510Z,99458.68
2022-12-23T14:39:33.576Z,99459.65
2022-12-23T14:42:08.368Z,99460.13
2022-12-23T14:44:51.993Z,99466.62
2022-12-23T14:47:40.329Z,99474.00
2022-12-23T14:50:36.655Z,99474.77
2022-12-23T14:53:22.894Z,99478.52
2022-12-23T14:56:13.635Z,99476.92
2022-12-23T14:59:09.178Z,99479.46
2022-12-23T15:01:43.335Z,99475.02
2022-12-23T15:04:25.283Z,99473.99
2022-12-23T15:07:00.201Z,99480.88
2022-12-23T15:09:34.339Z,99477.48
2022-12-23T15:12:06.468Z,99481.20
2022-12-23T15:14:41.379Z,99477.02
2022-12-23T15:17:24.969Z,99480.52
2022-12-23T15:20:02.590Z,99481.92
2022-12-23T15:22:35.501Z,99485.64
2022-12-23T15:25:17.826Z,99487.77
2022-12-23T15:27:51.843Z,99487.07
2022-12-23T15:30:28.115Z,99486.04
2022-12-23T15:33:01.872Z,99485.61
2022-12-23T15:35:35.657Z,99489.25
2022-12-23T15:38:08.400Z,99484.45
2022-12-23T15:40:40.917Z,99482.61
2022-12-23T15:43:20.269Z,99487.05
2022-12-23T15:45:52.641Z,99482.27
2022-12-23T15:48:29.084Z,99482.44
2022-12-23T15:51:03.006Z,99476.41
2022-12-23T15:53:36.706Z,99476.46
2022-12-23T15:56:11.018Z,99476.45
2022-12-23T15:58:44.953Z,99475.41
2022-12-23T16:01:18.883Z,99472.42
2022-12-23T16:03:56.132Z,99475.35
2022-12-23T16:06:31.997Z,99479.97
2022-12-23T16:09:06.429Z,99481.33
2022-12-23T16:11:55.038Z,99478.38
2022-12-23T16:14:41.004Z,99480.51
2022-12-23T16:17:25.477Z,99480.80
2022-12-23T16:20:08.137Z,99477.89
2022-12-23T16:22:40.327Z,99482.67
2022-12-23T16:25:17.606Z,99480.83
2022-12-23T16:27:51.604Z,99474.21
2022-12-23T16:30:25.574Z,99472.61
2022-12-23T16:32:59.068Z,99472.88
2022-12-23T16:35:35.904Z,99470.56
2022-12-23T16:38:19.314Z,99468.89
2022-12-23T16:40:52.481Z,99471.69
2022-12-23T16:43:25.826Z,99472.64
2022-12-23T16:45:59.890Z,99472.14
2022-12-23T16:48:34.142Z,99472.41
2022-12-23T16:51:05.078Z,99471.09
2022-12-23T16:53:37.070Z,99469.16
2022-12-23T16:56:14.646Z,99476.45
2022-12-23T16:58:47.276Z,99477.16
2022-12-23T17:01:22.122Z,99480.40
2022-12-23T17:03:56.047Z,99479.80
2022-12-23T17:06:28.489Z,99479.69
2022-12-23T17:09:00.549Z,99479.62
2022-12-23T17:11:40.245Z,99485.98
2022-12-23T17:14:17.514Z,99487.45
2022-12-23T17:16:49.775Z,99494.81
2022-12-23T17:19:28.645Z,99490.30
2022-12-23T17:22:04.536Z,99497.00
2022-12-23T17:24:36.524Z,99497.44
2022-12-23T17:27:15.152Z,99493.84
2022-12-23T17:29:47.571Z,99492.87
2022-12-23T17:32:20.818Z,99487.02
2022-12-23T17:34:52.850Z,99486.83
2022-12-23T17:37:25.045Z,99493.95
2022-12-23T17:39:56.873Z,99494.50
2022-12-23T17:42:28.822Z,99497.22
2022-12-23T17:45:01.037Z,99497.11
2022-12-23T17:47:32.847Z,99495.72
2022-12-23T17:50:04.822Z,99495.23
2022-12-23T17:52:38.918Z,99501.16
2022-12-23T17:55:10.769Z,99503.84
2022-12-23T17:57:42.612Z,99500.59
2022-12-23T18:00:25.185Z,99500.23
2022-12-23T18:03:01.632Z,99502.26
2022-12-23T18:05:36.429Z,99505.02
2022-12-23T18:08:08.427Z,99511.40
2022-12-23T18:10:42.330Z,99513.63
2022-12-23T18:13:18.105Z,99515.94
2022-12-23T18:15:49.959Z,99513.89
2022-12-23T18:18:31.321Z,99517.14
2022-12-23T18:21:08.153Z,99523.91
2022-12-23T18:23:40.037Z,99520.91
2022-12-23T18:26:16.179Z,99524.70
2022-12-23T18:28:48.293Z,99527.52
2022-12-23T18:31:22.159Z,99529.15
2022-12-23T18:33:54.622Z,99534.98
2022-12-23T18:36:28.928Z,99539.30
2022-12-23T18:39:00.897Z,99542.56
2022-12-23T18:41:33.009Z,99545.38
2022-12-23T18:44:04.964Z,99552.86
2022-12-23T18:46:36.946Z,99554.47
2022-12-23T18:49:09.030Z,99556.24
2022-12-23T18:51:41.595Z,99560.53
2022-12-23T18:54:17.959Z,99567.05
2022-12-23T18:56:49.410Z,99570.33
2022-12-23T18:59:29.601Z,99564.63
2022-12-23T19:02:03.048Z,99563.35
2022-12-23T19:04:37.565Z,99565.61
2022-12-23T19:07:10.361Z,99567.11
2022-12-23T19:09:42.297Z,99572.25
2022-12-23T19:12:14.457Z,99571.23
2022-12-23T19:14:47.500Z,99578.10
2022-12-23T19:17:19.653Z,99577.77
2022-12-23T19:19:51.848Z,99583.51
2022-12-23T19:22:26.585Z,99587.48
2022-12-23T19:25:05.833Z,99586.70
2022-12-23T19:27:38.904Z,99586.45
2022-12-23T19:30:15.035Z,99587.45
2022-12-23T19:32:51.731Z,99594.81
2022-12-23T19:35:23.930Z,99595.44
2022-12-23T19:37:55.884Z,99602.08
2022-12-23T19:40:27.774Z,99609.05
2022-12-23T19:42:59.586Z,99615.86
2022-12-23T19:45:31.508Z,99615.63
2022-12-23T19:48:03.812Z,99618.81
2022-12-23T19:50:35.809Z,99622.06
2022-12-23T19:53:08.341Z,99622.41
2022-12-23T19:55:40.275Z,99623.90
2022-12-23T19:58:12.376Z,99627.51
2022-12-23T20:00:44.560Z,99627.71
2022-12-23T20:03:16.599Z,99626.98
2022-12-23T20:05:51.709Z,99626.32
2022-12-23T20:08:23.810Z,99621.80
2022-12-23T20:11:05.051Z,99631.45
2022-12-23T20:13:37.863Z,99634.05
2022-12-23T20:16:11.242Z,99641.33
2022-12-23T20:18:43.568Z,99638.49
2022-12-23T20:21:15.797Z,99635.02
2022-12-23T20:23:47.702Z,99634.79
2022-12-23T20:26:22.541Z,99632.72
2022-12-23T20:28:54.635Z,99643.61
2022-12-23T20:31:27.569Z,99646.14
2022-12-23T20:34:01.568Z,99647.43
2022-12-23T20:36:39.848Z,99645.71
2022-12-23T20:39:11.961Z,99646.88
2022-12-23T20:41:43.837Z,99658.08
2022-12-23T20:47:07.985Z,99660.28
2022-12-23T20:49:39.916Z,99656.93
2022-12-23T20:52:11.931Z,99649.14
2022-12-23T20:54:43.805Z,99649.50
2022-12-23T20:57:15.792Z,99652.65
2022-12-23T20:59:47.676Z,99647.20
2022-12-23T21:02:19.587Z,99648.02
2022-12-23T21:04:51.735Z,99641.88
2022-12-23T21:07:26.343Z,99645.91
2022-12-23T21:09:58.150Z,99640.48
2022-12-23T21:12:30.528Z,99640.59
2022-12-23T21:15:02.729Z,99642.06
2022-12-23T21:17:34.904Z,99639.49
2022-12-23T21:20:09.229Z,99635.67
2022-12-23T21:22:41.344Z,99636.41
2022-12-23T21:25:22.527Z,99642.07
2022-12-23T21:27:56.590Z,99652.88
2022-12-23T21:30:28.508Z,99650.32
2022-12-23T21:33:03.765Z,99647.17
2022-12-23T21:35:37.503Z,99648.27
2022-12-23T21:38:10.739Z,99649.57
2022-12-23T21:40:43.098Z,99652.02
2022-12-23T21:43:15.214Z,99653.16
2022-12-23T21:45:47.385Z,99657.08
2022-12-23T21:48:19.238Z,99654.52
2022-12-23T21:50:51.177Z,99655.60
2022-12-23T21:53:31.285Z,99656.44
2022-12-23T21:56:15.851Z,99661.50
2022-12-23T21:58:54.931Z,99662.41
2022-12-23T22:01:27.402Z,99651.90
2022-12-23T22:04:05.261Z,99653.27
2022-12-23T22:06:48.375Z,99659.55
2022-12-23T22:09:24.495Z,99669.58
2022-12-23T22:11:59.886Z,99669.20
2022-12-23T22:14:39.209Z,99678.55
2022-12-23T22:17:19.297Z,99683.31
2022-12-23T22:19:59.523Z,99678.33
2022-12-23T22:22:36.188Z,99672.31
2022-12-23T22:25:21.043Z,99670.06
2022-12-23T22:27:56.473Z,99677.39
2022-12-23T22:30:29.077Z,99676.88
2022-12-23T22:33:12.737Z,99671.38
2022-12-23T22:36:01.110Z,99679.56
2022-12-23T22:38:41.481Z,99678.12
2022-12-23T22:41:16.812Z,99676.12
2022-12-23T22:44:03.200Z,99671.58
2022-12-23T22:46:43.112Z,99679.67
2022-12-23T22:49:22.364Z,99682.10
2022-12-23T22:51:58.713Z,99673.06
2022-12-23T22:54:43.689Z,99671.17
2022-12-23T22:57:25.755Z,99676.22
2022-12-23T23:00:07.885Z,99678.42
2022-12-23T23:02:58.764Z,99676.20
2022-12-23T23:05:42.747Z,99678.50
2022-12-23T23:08:18.856Z,99681.20
2022-12-23T23:10:54.757Z,99675.94
2022-12-23T23:13:28.203Z,99679.05
2022-12-23T23:16:07.889Z,99682.09
2022-12-23T23:18:40.477Z,99682.10
2022-12-23T23:21:15.698Z,99677.31
2022-12-23T23:23:57.616Z,99679.45
2022-12-23T23:26:41.855Z,99683.30
2022-12-23T23:29:16.201Z,99687.17
2022-12-23T23:31:48.118Z,99687.20
2022-12-23T23:34:20.168Z,99689.31
2022-12-23T23:36:52.074Z,99679.11
2022-12-23T23:39:24.102Z,99677.52
2022-12-23T23:41:56.015Z,99666.13
2022-12-23T23:44:27.991Z,99670.79
2022-12-23T23:46:59.816Z,99669.52
2022-12-23T23:49:31.735Z,99661.14
2022-12-23T23:52:03.581Z,99670.79
2022-12-23T23:54:35.665Z,99678.84
2022-12-23T23:57:07.545Z,99675.14
2022-12-23T23:59:39.347Z,99670.70
